createdAt,value
2023-04-23T00:01:34.644Z,16
2023-04-23T00:06:34.657Z,15
2023-04-23T00:11:34.648Z,16
2023-04-23T00:16:34.709Z,19
2023-04-23T00:21:34.662Z,18
2023-04-23T00:26:34.664Z,21
2023-04-23T00:31:34.666Z,17
2023-04-23T00:36:34.656Z,15
2023-04-23T00:41:34.669Z,15
2023-04-23T00:46:34.660Z,13
2023-04-23T00:51:34.672Z,17
2023-04-23T00:56:34.674Z,12
2023-04-23T01:01:34.665Z,13
2023-04-23T01:06:34.678Z,17
2023-04-23T01:11:34.668Z,15
2023-04-23T01:16:34.681Z,16
2023-04-23T01:21:34.683Z,17
2023-04-23T01:26:34.684Z,18
2023-04-23T01:31:34.687Z,15
2023-04-23T01:36:34.677Z,19
2023-04-23T01:41:34.689Z,15
2023-04-23T01:46:34.680Z,14
2023-04-23T01:51:34.693Z,16
2023-04-23T01:56:34.694Z,19
2023-04-23T02:01:34.685Z,17
2023-04-23T02:06:34.698Z,17
2023-04-23T02:11:34.688Z,15
2023-04-23T02:16:34.701Z,14
2023-04-23T02:21:34.702Z,18
2023-04-23T02:26:34.704Z,19
2023-04-23T02:31:34.770Z,17
2023-04-23T02:36:34.696Z,17
2023-04-23T02:41:34.752Z,17
2023-04-23T02:46:34.699Z,14
2023-04-23T02:51:34.712Z,16
2023-04-23T02:56:34.713Z,18
2023-04-23T03:01:34.756Z,19
2023-04-23T03:06:34.717Z,17
2023-04-23T03:11:34.707Z,15
2023-04-23T03:16:34.719Z,14
2023-04-23T03:21:34.710Z,17
2023-04-23T03:26:34.723Z,24
2023-04-23T03:31:34.724Z,19
2023-04-23T03:36:34.715Z,17
2023-04-23T03:41:34.728Z,15
2023-04-23T03:46:34.718Z,20
2023-04-23T03:51:34.730Z,14
2023-04-23T03:56:34.732Z,21
2023-04-23T04:01:34.733Z,15
2023-04-23T04:06:34.735Z,13
2023-04-23T04:11:34.725Z,15
2023-04-23T04:16:34.738Z,18
2023-04-23T04:21:34.728Z,17
2023-04-23T04:26:34.741Z,17
2023-04-23T04:31:34.742Z,17
2023-04-23T04:36:34.733Z,17
2023-04-23T04:41:34.746Z,15
2023-04-23T04:46:34.736Z,17
2023-04-23T04:51:34.748Z,22
2023-04-23T04:56:34.749Z,18
2023-04-23T05:01:34.751Z,16
2023-04-23T05:06:34.753Z,16
2023-04-23T05:11:34.743Z,14
2023-04-23T05:16:34.755Z,14
2023-04-23T05:21:34.746Z,19
2023-04-23T05:26:34.758Z,18
2023-04-23T05:31:34.760Z,18
2023-04-23T05:36:34.786Z,13
2023-04-23T05:41:34.763Z,25
2023-04-23T05:46:34.753Z,15
2023-04-23T05:51:34.766Z,15
2023-04-23T05:56:34.778Z,15
2023-04-23T06:01:34.769Z,15
2023-04-23T06:06:34.794Z,19
2023-04-23T06:11:34.761Z,17
2023-04-23T06:16:34.777Z,17
2023-04-23T06:21:34.764Z,19
2023-04-23T06:26:34.777Z,13
2023-04-23T06:31:34.778Z,20
2023-04-23T06:36:34.779Z,20
2023-04-23T06:41:34.781Z,15
2023-04-23T06:46:34.771Z,22
2023-04-23T06:51:36.175Z,17
2023-04-23T06:56:34.774Z,15
2023-04-23T07:01:34.787Z,17
2023-04-23T07:06:34.788Z,17
2023-04-23T07:11:34.779Z,24
2023-04-23T07:16:34.792Z,22
2023-04-23T07:21:34.782Z,25
2023-04-23T07:26:34.795Z,21
2023-04-23T07:31:34.796Z,23
2023-04-23T07:36:34.798Z,23
2023-04-23T07:41:34.800Z,20
2023-04-23T07:46:34.790Z,19
2023-04-23T07:51:42.172Z,19
2023-04-23T07:56:34.794Z,20
2023-04-23T08:01:34.807Z,21
2023-04-23T08:06:34.808Z,21
2023-04-23T08:11:34.799Z,16
2023-04-23T08:16:34.813Z,22
2023-04-23T08:21:34.803Z,18
2023-04-23T08:26:34.816Z,21
2023-04-23T08:31:34.818Z,23
2023-04-23T08:36:34.819Z,19
2023-04-23T08:41:34.822Z,19
2023-04-23T08:46:34.812Z,21
2023-04-23T08:51:48.176Z,24
2023-04-23T08:56:34.816Z,19
2023-04-23T09:01:34.829Z,21
2023-04-23T09:06:34.831Z,27
2023-04-23T09:11:34.822Z,20
2023-04-23T09:16:34.835Z,17
2023-04-23T09:21:34.826Z,24
2023-04-23T09:26:34.839Z,26
2023-04-23T09:31:34.830Z,29
2023-04-23T09:36:34.843Z,19
2023-04-23T09:41:34.845Z,24
2023-04-23T09:46:34.836Z,30
2023-04-23T09:51:54.201Z,24
2023-04-23T09:56:34.840Z,21
2023-04-23T10:01:34.853Z,22
2023-04-23T10:06:34.856Z,28
2023-04-23T10:11:34.858Z,15
2023-04-23T10:16:34.861Z,28
2023-04-23T10:21:34.852Z,19
2023-04-23T10:26:34.865Z,20
2023-04-23T10:31:34.856Z,22
2023-04-23T10:36:34.870Z,22
2023-04-23T10:41:34.872Z,19
2023-04-23T10:46:34.864Z,27
2023-04-23T10:52:00.182Z,23
2023-04-23T10:56:34.869Z,29
2023-04-23T11:01:34.882Z,26
2023-04-23T11:06:34.885Z,27
2023-04-23T11:11:34.888Z,23
2023-04-23T11:16:34.891Z,24
2023-04-23T11:21:34.882Z,29
2023-04-23T11:26:34.896Z,24
2023-04-23T11:31:34.887Z,24
2023-04-23T11:36:34.901Z,30
2023-04-23T11:41:34.904Z,26
2023-04-23T11:46:34.971Z,34
2023-04-23T11:51:49.706Z,28
2023-04-23T11:56:34.901Z,38
2023-04-23T12:01:34.914Z,31
2023-04-23T12:06:34.917Z,31
2023-04-23T12:11:34.920Z,36
2023-04-23T12:16:34.947Z,30
2023-04-23T12:21:34.914Z,39
2023-04-23T12:26:34.931Z,34
2023-04-23T12:31:34.919Z,38
2023-04-23T12:36:34.932Z,32
2023-04-23T12:41:34.935Z,33
2023-04-23T12:46:34.937Z,33
2023-04-23T12:51:34.940Z,28
2023-04-23T12:56:34.931Z,29
2023-04-23T13:01:34.945Z,32
2023-04-23T13:06:34.936Z,27
2023-04-23T13:11:34.950Z,30
2023-04-23T13:16:34.953Z,25
2023-04-23T13:21:34.945Z,32
2023-04-23T13:26:34.959Z,31
2023-04-23T13:31:34.950Z,36
2023-04-23T13:36:34.963Z,36
2023-04-23T13:41:34.966Z,32
2023-04-23T13:46:34.968Z,43
2023-04-23T13:51:34.972Z,38
2023-04-23T13:56:34.963Z,29
2023-04-23T14:01:34.976Z,41
2023-04-23T14:06:34.968Z,35
2023-04-23T14:11:34.982Z,36
2023-04-23T14:16:34.985Z,34
2023-04-23T14:21:34.977Z,43
2023-04-23T14:26:34.991Z,52
2023-04-23T14:31:34.982Z,34
2023-04-23T14:36:34.996Z,38
2023-04-23T14:41:34.998Z,36
2023-04-23T14:46:35.001Z,29
2023-04-23T14:51:35.004Z,35
2023-04-23T14:56:34.994Z,32
2023-04-23T15:01:35.008Z,51
2023-04-23T15:06:34.999Z,32
2023-04-23T15:11:35.013Z,27
2023-04-23T15:16:35.015Z,30
2023-04-23T15:21:35.007Z,29
2023-04-23T15:26:35.021Z,32
2023-04-23T15:31:35.012Z,28
2023-04-23T15:36:35.025Z,33
2023-04-23T15:41:35.027Z,26
2023-04-23T15:46:35.030Z,34
2023-04-23T15:51:35.096Z,28
2023-04-23T15:56:35.023Z,42
2023-04-23T16:01:35.082Z,38
2023-04-23T16:06:35.028Z,33
2023-04-23T16:11:35.041Z,28
2023-04-23T16:16:35.043Z,27
2023-04-23T16:21:35.035Z,29
2023-04-23T16:26:35.048Z,30
2023-04-23T16:31:35.039Z,37
2023-04-23T16:36:35.052Z,26
2023-04-23T16:41:35.043Z,33
2023-04-23T16:46:35.057Z,31
2023-04-23T16:51:35.059Z,44
2023-04-23T16:56:35.050Z,43
2023-04-23T17:01:35.063Z,29
2023-04-23T17:06:35.054Z,26
2023-04-23T17:11:35.067Z,34
2023-04-23T17:16:35.069Z,24
2023-04-23T17:21:35.071Z,24
2023-04-23T17:26:35.073Z,20
2023-04-23T17:31:35.064Z,21
2023-04-23T17:36:35.076Z,16
2023-04-23T17:41:35.067Z,20
2023-04-23T17:46:35.079Z,19
2023-04-23T17:51:35.081Z,20
2023-04-23T17:56:35.071Z,24
2023-04-23T18:01:35.084Z,14
2023-04-23T18:06:35.074Z,17
2023-04-23T18:11:35.086Z,14
2023-04-23T18:16:35.088Z,20
2023-04-23T18:21:35.089Z,25
2023-04-23T18:26:35.091Z,24
2023-04-23T18:31:35.081Z,23
2023-04-23T18:36:35.093Z,18
2023-04-23T18:41:35.084Z,25
2023-04-23T18:46:35.145Z,24
2023-04-23T18:51:35.097Z,21
2023-04-23T18:56:35.099Z,17
2023-04-23T19:01:35.101Z,18
2023-04-23T19:06:35.091Z,17
2023-04-23T19:11:35.103Z,18
2023-04-23T19:16:35.094Z,21
2023-04-23T19:21:35.106Z,17
2023-04-23T19:26:35.107Z,17
2023-04-23T19:31:35.098Z,17
2023-04-23T19:36:35.111Z,15
2023-04-23T19:41:35.101Z,15
2023-04-23T19:46:35.113Z,19
2023-04-23T19:51:35.114Z,13
2023-04-23T19:56:35.116Z,21
2023-04-23T20:01:35.118Z,15
2023-04-23T20:06:35.108Z,15
2023-04-23T20:11:35.120Z,16
2023-04-23T20:16:35.111Z,18
2023-04-23T20:21:35.123Z,15
2023-04-23T20:26:35.124Z,23
2023-04-23T20:31:35.115Z,16
2023-04-23T20:36:35.128Z,13
2023-04-23T20:41:35.118Z,17
2023-04-23T20:46:35.130Z,15
2023-04-23T20:51:35.132Z,11
2023-04-23T20:56:35.133Z,16
2023-04-23T21:01:35.135Z,17
2023-04-23T21:06:35.125Z,16
2023-04-23T21:11:35.181Z,13
2023-04-23T21:16:35.128Z,14
2023-04-23T21:21:35.140Z,15
2023-04-23T21:26:35.141Z,17
2023-04-23T21:31:35.184Z,16
2023-04-23T21:36:35.145Z,16
2023-04-23T21:41:35.135Z,13
2023-04-23T21:46:35.147Z,14
2023-04-23T21:51:35.138Z,18
2023-04-23T21:56:35.150Z,15
2023-04-23T22:01:35.151Z,14
2023-04-23T22:06:35.142Z,17
2023-04-23T22:11:35.155Z,15
2023-04-23T22:16:35.145Z,15
2023-04-23T22:21:35.157Z,18
2023-04-23T22:26:35.158Z,17
2023-04-23T22:31:35.160Z,12
2023-04-23T22:36:35.162Z,15
2023-04-23T22:41:35.152Z,17
2023-04-23T22:46:35.164Z,13
2023-04-23T22:51:35.155Z,15
2023-04-23T22:56:35.167Z,13
2023-04-23T23:01:35.168Z,19
2023-04-23T23:06:35.159Z,17
2023-04-23T23:11:35.172Z,18
2023-04-23T23:16:35.162Z,16
2023-04-23T23:21:35.174Z,14
2023-04-23T23:26:35.175Z,14
2023-04-23T23:31:35.177Z,18
2023-04-23T23:36:35.179Z,17
2023-04-23T23:41:35.169Z,17
2023-04-23T23:46:35.181Z,15
2023-04-23T23:51:35.171Z,14
2023-04-23T23:56:35.184Z,18
